sensor_id;sensor_type;location;lat;lon;timestamp;pressure;altitude;pressure_sealevel;temperature;humidity
74798;BME280;63326;45.088;7.658;2023-06-10T00:02:21;98390.47;;;19.16;nan
74798;BME280;63326;45.088;7.658;2023-06-10T00:04:48;98395.59;;;19.13;nan
74798;BME280;63326;45.088;7.658;2023-06-10T00:07:15;98393.34;;;19.10;nan
74798;BME280;63326;45.088;7.658;2023-06-10T00:09:41;98396.88;;;19.10;nan
74798;BME280;63326;45.088;7.658;2023-06-10T00:12:09;98402.56;;;19.09;nan
74798;BME280;63326;45.088;7.658;2023-06-10T00:14:39;98391.25;;;19.00;nan
74798;BME280;63326;45.088;7.658;2023-06-10T00:17:07;98397.63;;;19.06;nan
74798;BME280;63326;45.088;7.658;2023-06-10T00:19:37;98372.88;;;18.90;nan
74798;BME280;63326;45.088;7.658;2023-06-10T00:22:08;98403.28;;;19.04;nan
74798;BME280;63326;45.088;7.658;2023-06-10T00:24:37;98401.41;;;19.05;nan
74798;BME280;63326;45.088;7.658;2023-06-10T00:27:04;98398.69;;;19.05;nan
74798;BME280;63326;45.088;7.658;2023-06-10T00:29:33;98395.84;;;18.99;nan
74798;BME280;63326;45.088;7.658;2023-06-10T00:32:00;98388.69;;;18.93;nan
74798;BME280;63326;45.088;7.658;2023-06-10T00:34:27;98400.47;;;18.99;nan
74798;BME280;63326;45.088;7.658;2023-06-10T00:36:54;98399.88;;;18.97;nan
74798;BME280;63326;45.088;7.658;2023-06-10T00:39:22;98371.00;;;18.79;nan
74798;BME280;63326;45.088;7.658;2023-06-10T00:41:49;98390.59;;;18.93;nan
74798;BME280;63326;45.088;7.658;2023-06-10T00:44:16;98400.63;;;18.92;nan
74798;BME280;63326;45.088;7.658;2023-06-10T00:46:43;98391.66;;;18.92;nan
74798;BME280;63326;45.088;7.658;2023-06-10T00:49:10;98383.41;;;18.87;nan
74798;BME280;63326;45.088;7.658;2023-06-10T00:51:37;98396.34;;;18.96;nan
74798;BME280;63326;45.088;7.658;2023-06-10T00:54:04;98385.72;;;18.95;nan
74798;BME280;63326;45.088;7.658;2023-06-10T00:56:32;98378.06;;;18.92;nan
74798;BME280;63326;45.088;7.658;2023-06-10T00:59:01;98382.19;;;18.94;nan
74798;BME280;63326;45.088;7.658;2023-06-10T01:01:28;98381.63;;;18.92;nan
74798;BME280;63326;45.088;7.658;2023-06-10T01:03:56;98387.13;;;18.97;nan
74798;BME280;63326;45.088;7.658;2023-06-10T01:12:33;98390.22;;;19.01;nan
74798;BME280;63326;45.088;7.658;2023-06-10T01:15:01;98354.72;;;18.79;nan
74798;BME280;63326;45.088;7.658;2023-06-10T01:17:30;98385.81;;;19.00;nan
74798;BME280;63326;45.088;7.658;2023-06-10T01:19:57;98366.38;;;18.91;nan
74798;BME280;63326;45.088;7.658;2023-06-10T01:22:26;98384.41;;;18.97;nan
74798;BME280;63326;45.088;7.658;2023-06-10T01:24:59;98379.47;;;18.94;nan
74798;BME280;63326;45.088;7.658;2023-06-10T01:27:30;98381.94;;;18.96;nan
74798;BME280;63326;45.088;7.658;2023-06-10T01:30:04;98384.66;;;18.96;nan
74798;BME280;63326;45.088;7.658;2023-06-10T01:32:40;98363.47;;;18.81;nan
74798;BME280;63326;45.088;7.658;2023-06-10T01:35:10;98381.84;;;18.91;nan
74798;BME280;63326;45.088;7.658;2023-06-10T01:37:43;98385.47;;;18.96;nan
74798;BME280;63326;45.088;7.658;2023-06-10T01:40:13;98389.28;;;18.95;nan
74798;BME280;63326;45.088;7.658;2023-06-10T01:42:40;98385.72;;;18.95;nan
74798;BME280;63326;45.088;7.658;2023-06-10T01:45:08;98373.59;;;18.86;nan
74798;BME280;63326;45.088;7.658;2023-06-10T01:47:35;98385.16;;;18.93;nan
74798;BME280;63326;45.088;7.658;2023-06-10T01:50:01;98372.03;;;18.90;nan
74798;BME280;63326;45.088;7.658;2023-06-10T01:52:28;98388.34;;;18.90;nan
74798;BME280;63326;45.088;7.658;2023-06-10T01:54:55;98386.94;;;18.87;nan
74798;BME280;63326;45.088;7.658;2023-06-10T01:57:22;98363.34;;;18.76;nan
74798;BME280;63326;45.088;7.658;2023-06-10T01:59:48;98373.84;;;18.84;nan
74798;BME280;63326;45.088;7.658;2023-06-10T02:02:15;98378.53;;;18.89;nan
74798;BME280;63326;45.088;7.658;2023-06-10T02:04:42;98376.31;;;18.86;nan
74798;BME280;63326;45.088;7.658;2023-06-10T02:07:09;98356.03;;;18.77;nan
74798;BME280;63326;45.088;7.658;2023-06-10T02:09:35;98363.06;;;18.89;nan
74798;BME280;63326;45.088;7.658;2023-06-10T02:12:03;98368.16;;;18.86;nan
74798;BME280;63326;45.088;7.658;2023-06-10T02:14:32;98355.22;;;18.76;nan
74798;BME280;63326;45.088;7.658;2023-06-10T02:16:59;98344.34;;;18.76;nan
74798;BME280;63326;45.088;7.658;2023-06-10T02:19:26;98353.44;;;18.82;nan
74798;BME280;63326;45.088;7.658;2023-06-10T02:21:53;98354.25;;;18.82;nan
74798;BME280;63326;45.088;7.658;2023-06-10T02:24:20;98344.34;;;18.76;nan
74798;BME280;63326;45.088;7.658;2023-06-10T02:26:47;98367.22;;;18.92;nan
74798;BME280;63326;45.088;7.658;2023-06-10T02:29:15;98356.72;;;18.84;nan
74798;BME280;63326;45.088;7.658;2023-06-10T02:31:41;98369.94;;;18.92;nan
74798;BME280;63326;45.088;7.658;2023-06-10T02:34:08;98361.66;;;18.87;nan
74798;BME280;63326;45.088;7.658;2023-06-10T02:36:35;98357.78;;;18.83;nan
74798;BME280;63326;45.088;7.658;2023-06-10T02:39:03;98371.13;;;18.84;nan
74798;BME280;63326;45.088;7.658;2023-06-10T02:41:31;98378.69;;;18.82;nan
74798;BME280;63326;45.088;7.658;2023-06-10T02:44:00;98363.28;;;18.71;nan
74798;BME280;63326;45.088;7.658;2023-06-10T02:46:27;98387.91;;;18.81;nan
74798;BME280;63326;45.088;7.658;2023-06-10T02:48:55;98377.69;;;18.72;nan
74798;BME280;63326;45.088;7.658;2023-06-10T02:51:24;98363.16;;;18.66;nan
74798;BME280;63326;45.088;7.658;2023-06-10T02:53:56;98365.63;;;18.67;nan
74798;BME280;63326;45.088;7.658;2023-06-10T02:56:23;98348.66;;;18.60;nan
74798;BME280;63326;45.088;7.658;2023-06-10T02:58:50;98352.41;;;18.59;nan
74798;BME280;63326;45.088;7.658;2023-06-10T03:01:19;98375.69;;;18.55;nan
74798;BME280;63326;45.088;7.658;2023-06-10T03:04:04;98388.13;;;18.39;nan
74798;BME280;63326;45.088;7.658;2023-06-10T03:06:33;98360.75;;;18.18;nan
74798;BME280;63326;45.088;7.658;2023-06-10T03:09:09;98377.84;;;18.41;nan
74798;BME280;63326;45.088;7.658;2023-06-10T03:11:39;98390.47;;;18.36;nan
74798;BME280;63326;45.088;7.658;2023-06-10T03:14:06;98351.09;;;18.22;nan
74798;BME280;63326;45.088;7.658;2023-06-10T03:16:33;98376.78;;;18.42;nan
74798;BME280;63326;45.088;7.658;2023-06-10T03:19:00;98357.19;;;18.29;nan
74798;BME280;63326;45.088;7.658;2023-06-10T03:21:28;98362.63;;;18.29;nan
74798;BME280;63326;45.088;7.658;2023-06-10T03:23:56;98374.66;;;18.33;nan
74798;BME280;63326;45.088;7.658;2023-06-10T03:26:23;98377.63;;;18.31;nan
74798;BME280;63326;45.088;7.658;2023-06-10T03:28:50;98386.34;;;18.33;nan
74798;BME280;63326;45.088;7.658;2023-06-10T03:31:19;98375.81;;;18.37;nan
74798;BME280;63326;45.088;7.658;2023-06-10T03:33:46;98384.22;;;18.35;nan
74798;BME280;63326;45.088;7.658;2023-06-10T03:36:13;98348.63;;;18.20;nan
74798;BME280;63326;45.088;7.658;2023-06-10T03:38:40;98359.69;;;18.30;nan
74798;BME280;63326;45.088;7.658;2023-06-10T03:41:07;98380.81;;;18.40;nan
74798;BME280;63326;45.088;7.658;2023-06-10T03:43:37;98376.03;;;18.47;nan
74798;BME280;63326;45.088;7.658;2023-06-10T03:46:06;98347.41;;;18.28;nan
74798;BME280;63326;45.088;7.658;2023-06-10T03:48:33;98342.22;;;18.26;nan
74798;BME280;63326;45.088;7.658;2023-06-10T03:50:59;98358.72;;;18.36;nan
74798;BME280;63326;45.088;7.658;2023-06-10T03:53:26;98362.00;;;18.38;nan
74798;BME280;63326;45.088;7.658;2023-06-10T03:55:53;98375.81;;;18.37;nan
74798;BME280;63326;45.088;7.658;2023-06-10T03:58:22;98350.59;;;18.25;nan
74798;BME280;63326;45.088;7.658;2023-06-10T04:00:49;98354.59;;;18.34;nan
74798;BME280;63326;45.088;7.658;2023-06-10T04:03:16;98377.34;;;18.45;nan
74798;BME280;63326;45.088;7.658;2023-06-10T04:05:46;98350.34;;;18.38;nan
74798;BME280;63326;45.088;7.658;2023-06-10T04:08:12;98370.97;;;18.51;nan
74798;BME280;63326;45.088;7.658;2023-06-10T04:10:39;98360.13;;;18.51;nan
74798;BME280;63326;45.088;7.658;2023-06-10T04:13:06;98365.41;;;18.57;nan
74798;BME280;63326;45.088;7.658;2023-06-10T04:15:39;98373.53;;;18.57;nan
74798;BME280;63326;45.088;7.658;2023-06-10T04:18:10;98362.09;;;18.55;nan
74798;BME280;63326;45.088;7.658;2023-06-10T04:20:37;98366.59;;;18.61;nan
74798;BME280;63326;45.088;7.658;2023-06-10T04:23:04;98365.97;;;18.59;nan
74798;BME280;63326;45.088;7.658;2023-06-10T04:25:31;98364.13;;;18.60;nan
74798;BME280;63326;45.088;7.658;2023-06-10T04:27:58;98370.81;;;18.69;nan
74798;BME280;63326;45.088;7.658;2023-06-10T04:30:26;98369.78;;;18.70;nan
74798;BME280;63326;45.088;7.658;2023-06-10T04:32:53;98354.28;;;18.59;nan
74798;BME280;63326;45.088;7.658;2023-06-10T04:35:20;98366.69;;;18.66;nan
74798;BME280;63326;45.088;7.658;2023-06-10T04:37:47;98349.69;;;18.59;nan
74798;BME280;63326;45.088;7.658;2023-06-10T04:40:15;98355.34;;;18.69;nan
74798;BME280;63326;45.088;7.658;2023-06-10T04:42:42;98362.28;;;18.77;nan
74798;BME280;63326;45.088;7.658;2023-06-10T04:45:09;98357.34;;;18.74;nan
74798;BME280;63326;45.088;7.658;2023-06-10T04:47:37;98360.06;;;18.74;nan
74798;BME280;63326;45.088;7.658;2023-06-10T04:50:05;98344.72;;;18.68;nan
74798;BME280;63326;45.088;7.658;2023-06-10T04:52:32;98335.41;;;18.64;nan
74798;BME280;63326;45.088;7.658;2023-06-10T04:55:00;98336.13;;;18.71;nan
74798;BME280;63326;45.088;7.658;2023-06-10T04:57:27;98331.41;;;18.66;nan
74798;BME280;63326;45.088;7.658;2023-06-10T04:59:54;98356.47;;;18.85;nan
74798;BME280;63326;45.088;7.658;2023-06-10T05:02:20;98358.03;;;18.81;nan
74798;BME280;63326;45.088;7.658;2023-06-10T05:04:47;98354.34;;;18.87;nan
74798;BME280;63326;45.088;7.658;2023-06-10T05:07:14;98344.28;;;18.88;nan
74798;BME280;63326;45.088;7.658;2023-06-10T05:09:41;98346.19;;;18.87;nan
74798;BME280;63326;45.088;7.658;2023-06-10T05:12:08;98355.53;;;18.80;nan
74798;BME280;63326;45.088;7.658;2023-06-10T05:14:35;98360.56;;;18.71;nan
74798;BME280;63326;45.088;7.658;2023-06-10T05:17:02;98352.75;;;18.75;nan
74798;BME280;63326;45.088;7.658;2023-06-10T05:19:29;98325.50;;;18.58;nan
74798;BME280;63326;45.088;7.658;2023-06-10T05:21:55;98346.50;;;18.62;nan
74798;BME280;63326;45.088;7.658;2023-06-10T05:24:22;98346.97;;;18.71;nan
74798;BME280;63326;45.088;7.658;2023-06-10T05:26:49;98350.13;;;18.80;nan
74798;BME280;63326;45.088;7.658;2023-06-10T05:29:16;98354.19;;;18.54;nan
74798;BME280;63326;45.088;7.658;2023-06-10T05:31:43;98356.78;;;18.60;nan
74798;BME280;63326;45.088;7.658;2023-06-10T05:34:10;98359.63;;;18.65;nan
74798;BME280;63326;45.088;7.658;2023-06-10T05:36:37;98346.88;;;18.66;nan
74798;BME280;63326;45.088;7.658;2023-06-10T05:39:04;98352.53;;;18.64;nan
74798;BME280;63326;45.088;7.658;2023-06-10T05:41:30;98353.25;;;18.72;nan
74798;BME280;63326;45.088;7.658;2023-06-10T05:43:57;98354.00;;;18.84;nan
74798;BME280;63326;45.088;7.658;2023-06-10T05:46:24;98353.69;;;18.80;nan
74798;BME280;63326;45.088;7.658;2023-06-10T05:48:51;98351.00;;;18.97;nan
74798;BME280;63326;45.088;7.658;2023-06-10T05:51:17;98356.41;;;18.97;nan
74798;BME280;63326;45.088;7.658;2023-06-10T05:53:44;98349.53;;;19.06;nan
74798;BME280;63326;45.088;7.658;2023-06-10T05:56:14;98333.81;;;19.08;nan
74798;BME280;63326;45.088;7.658;2023-06-10T05:58:40;98345.34;;;19.15;nan
74798;BME280;63326;45.088;7.658;2023-06-10T06:01:07;98343.31;;;19.22;nan
74798;BME280;63326;45.088;7.658;2023-06-10T06:03:34;98318.81;;;19.06;nan
74798;BME280;63326;45.088;7.658;2023-06-10T06:06:02;98356.41;;;19.25;nan
74798;BME280;63326;45.088;7.658;2023-06-10T06:08:29;98338.44;;;19.24;nan
74798;BME280;63326;45.088;7.658;2023-06-10T06:10:56;98335.38;;;19.04;nan
74798;BME280;63326;45.088;7.658;2023-06-10T06:13:23;98338.19;;;19.26;nan
74798;BME280;63326;45.088;7.658;2023-06-10T06:15:50;98364.22;;;19.39;nan
74798;BME280;63326;45.088;7.658;2023-06-10T06:18:16;98363.00;;;19.46;nan
74798;BME280;63326;45.088;7.658;2023-06-10T06:20:44;98313.88;;;19.03;nan
74798;BME280;63326;45.088;7.658;2023-06-10T06:23:11;98370.47;;;19.39;nan
74798;BME280;63326;45.088;7.658;2023-06-10T06:25:38;98372.22;;;19.45;nan
74798;BME280;63326;45.088;7.658;2023-06-10T06:28:06;98365.72;;;19.46;nan
74798;BME280;63326;45.088;7.658;2023-06-10T06:30:33;98375.72;;;19.58;nan
74798;BME280;63326;45.088;7.658;2023-06-10T06:33:00;98375.47;;;19.59;nan
74798;BME280;63326;45.088;7.658;2023-06-10T06:35:27;98373.56;;;19.60;nan
74798;BME280;63326;45.088;7.658;2023-06-10T06:37:54;98352.22;;;19.51;nan
74798;BME280;63326;45.088;7.658;2023-06-10T06:40:25;98381.84;;;19.65;nan
74798;BME280;63326;45.088;7.658;2023-06-10T06:42:52;98370.97;;;19.65;nan
74798;BME280;63326;45.088;7.658;2023-06-10T06:45:47;98376.63;;;19.80;nan
74798;BME280;63326;45.088;7.658;2023-06-10T06:48:13;98381.06;;;19.86;nan
74798;BME280;63326;45.088;7.658;2023-06-10T06:50:40;98367.78;;;19.90;nan
74798;BME280;63326;45.088;7.658;2023-06-10T06:53:08;98362.69;;;19.93;nan
74798;BME280;63326;45.088;7.658;2023-06-10T06:55:34;98355.72;;;20.02;nan
74798;BME280;63326;45.088;7.658;2023-06-10T06:58:01;98376.13;;;20.22;nan
74798;BME280;63326;45.088;7.658;2023-06-10T07:00:31;98376.78;;;20.29;nan
74798;BME280;63326;45.088;7.658;2023-06-10T07:02:58;98382.38;;;20.39;nan
74798;BME280;63326;45.088;7.658;2023-06-10T07:05:25;98371.59;;;20.27;nan
74798;BME280;63326;45.088;7.658;2023-06-10T07:07:54;98372.03;;;20.41;nan
74798;BME280;63326;45.088;7.658;2023-06-10T07:10:21;98375.75;;;20.52;nan
74798;BME280;63326;45.088;7.658;2023-06-10T07:12:50;98382.41;;;20.61;nan
74798;BME280;63326;45.088;7.658;2023-06-10T07:15:17;98385.50;;;20.69;nan
74798;BME280;63326;45.088;7.658;2023-06-10T07:17:44;98373.88;;;20.74;nan
74798;BME280;63326;45.088;7.658;2023-06-10T07:20:11;98386.00;;;20.88;nan
74798;BME280;63326;45.088;7.658;2023-06-10T07:22:38;98391.00;;;20.96;nan
74798;BME280;63326;45.088;7.658;2023-06-10T07:25:07;98391.94;;;21.07;nan
74798;BME280;63326;45.088;7.658;2023-06-10T07:27:35;98381.09;;;21.12;nan
74798;BME280;63326;45.088;7.658;2023-06-10T07:30:05;98389.75;;;21.31;nan
74798;BME280;63326;45.088;7.658;2023-06-10T07:32:34;98389.81;;;21.36;nan
74798;BME280;63326;45.088;7.658;2023-06-10T07:35:01;98391.03;;;21.50;nan
74798;BME280;63326;45.088;7.658;2023-06-10T07:37:28;98390.03;;;21.62;nan
74798;BME280;63326;45.088;7.658;2023-06-10T07:39:56;98380.28;;;21.71;nan
74798;BME280;63326;45.088;7.658;2023-06-10T07:42:23;98389.16;;;21.88;nan
74798;BME280;63326;45.088;7.658;2023-06-10T07:44:49;98383.63;;;21.78;nan
74798;BME280;63326;45.088;7.658;2023-06-10T07:47:16;98394.34;;;21.90;nan
74798;BME280;63326;45.088;7.658;2023-06-10T07:49:43;98401.91;;;22.09;nan
74798;BME280;63326;45.088;7.658;2023-06-10T07:52:10;98391.94;;;22.35;nan
74798;BME280;63326;45.088;7.658;2023-06-10T07:54:36;98365.47;;;21.62;nan
74798;BME280;63326;45.088;7.658;2023-06-10T07:57:03;98392.16;;;22.24;nan
74798;BME280;63326;45.088;7.658;2023-06-10T07:59:30;98402.97;;;22.56;nan
74798;BME280;63326;45.088;7.658;2023-06-10T08:01:57;98386.47;;;22.30;nan
74798;BME280;63326;45.088;7.658;2023-06-10T08:04:23;98389.47;;;22.34;nan
74798;BME280;63326;45.088;7.658;2023-06-10T08:06:50;98389.34;;;22.61;nan
74798;BME280;63326;45.088;7.658;2023-06-10T08:09:17;98401.41;;;22.75;nan
74798;BME280;63326;45.088;7.658;2023-06-10T08:11:46;98400.75;;;23.00;nan
74798;BME280;63326;45.088;7.658;2023-06-10T08:14:13;98380.78;;;23.05;nan
74798;BME280;63326;45.088;7.658;2023-06-10T08:16:40;98364.63;;;23.08;nan
74798;BME280;63326;45.088;7.658;2023-06-10T08:19:07;98395.88;;;23.27;nan
74798;BME280;63326;45.088;7.658;2023-06-10T08:21:37;98396.97;;;23.32;nan
74798;BME280;63326;45.088;7.658;2023-06-10T08:24:06;98393.97;;;23.33;nan
74798;BME280;63326;45.088;7.658;2023-06-10T08:26:33;98407.66;;;23.48;nan
74798;BME280;63326;45.088;7.658;2023-06-10T08:29:00;98400.59;;;23.68;nan
74798;BME280;63326;45.088;7.658;2023-06-10T08:33:54;98397.31;;;23.86;nan
74798;BME280;63326;45.088;7.658;2023-06-10T08:36:20;98389.38;;;23.84;nan
74798;BME280;63326;45.088;7.658;2023-06-10T08:38:47;98403.84;;;24.00;nan
74798;BME280;63326;45.088;7.658;2023-06-10T08:41:17;98395.66;;;23.85;nan
74798;BME280;63326;45.088;7.658;2023-06-10T08:43:46;98393.75;;;23.75;nan
74798;BME280;63326;45.088;7.658;2023-06-10T08:46:14;98397.53;;;24.20;nan
74798;BME280;63326;45.088;7.658;2023-06-10T08:48:42;98393.13;;;24.39;nan
74798;BME280;63326;45.088;7.658;2023-06-10T08:51:13;98402.19;;;24.25;nan
74798;BME280;63326;45.088;7.658;2023-06-10T08:54:11;98386.91;;;23.93;nan
74798;BME280;63326;45.088;7.658;2023-06-10T08:56:39;98395.28;;;24.63;nan
74798;BME280;63326;45.088;7.658;2023-06-10T08:59:08;98400.63;;;24.93;nan
74798;BME280;63326;45.088;7.658;2023-06-10T09:01:36;98399.63;;;24.69;nan
74798;BME280;63326;45.088;7.658;2023-06-10T09:04:04;98399.19;;;24.36;nan
74798;BME280;63326;45.088;7.658;2023-06-10T09:06:32;98403.03;;;24.35;nan
74798;BME280;63326;45.088;7.658;2023-06-10T09:09:01;98397.81;;;25.14;nan
74798;BME280;63326;45.088;7.658;2023-06-10T09:11:30;98408.28;;;25.02;nan
74798;BME280;63326;45.088;7.658;2023-06-10T09:13:58;98403.88;;;25.06;nan
74798;BME280;63326;45.088;7.658;2023-06-10T09:16:26;98385.41;;;25.61;nan
74798;BME280;63326;45.088;7.658;2023-06-10T09:18:53;98393.94;;;26.22;nan
74798;BME280;63326;45.088;7.658;2023-06-10T09:21:23;98401.81;;;26.82;nan
74798;BME280;63326;45.088;7.658;2023-06-10T09:23:50;98397.81;;;27.73;nan
74798;BME280;63326;45.088;7.658;2023-06-10T09:26:18;98393.78;;;27.84;nan
74798;BME280;63326;45.088;7.658;2023-06-10T09:28:47;98395.75;;;28.58;nan
74798;BME280;63326;45.088;7.658;2023-06-10T09:31:14;98391.84;;;27.85;nan
74798;BME280;63326;45.088;7.658;2023-06-10T09:33:45;98384.91;;;28.20;nan
74798;BME280;63326;45.088;7.658;2023-06-10T09:36:11;98397.91;;;28.75;nan
74798;BME280;63326;45.088;7.658;2023-06-10T09:38:49;98388.50;;;28.76;nan
74798;BME280;63326;45.088;7.658;2023-06-10T09:41:17;98399.06;;;29.37;nan
74798;BME280;63326;45.088;7.658;2023-06-10T09:43:45;98390.34;;;28.66;nan
74798;BME280;63326;45.088;7.658;2023-06-10T09:46:19;98404.13;;;27.36;nan
74798;BME280;63326;45.088;7.658;2023-06-10T09:48:47;98400.19;;;27.80;nan
74798;BME280;63326;45.088;7.658;2023-06-10T09:51:15;98379.19;;;27.46;nan
74798;BME280;63326;45.088;7.658;2023-06-10T09:53:50;98392.31;;;26.93;nan
74798;BME280;63326;45.088;7.658;2023-06-10T09:56:18;98373.44;;;28.27;nan
74798;BME280;63326;45.088;7.658;2023-06-10T09:58:45;98365.59;;;28.20;nan
74798;BME280;63326;45.088;7.658;2023-06-10T10:01:14;98397.50;;;27.75;nan
74798;BME280;63326;45.088;7.658;2023-06-10T10:03:49;98397.00;;;28.05;nan
74798;BME280;63326;45.088;7.658;2023-06-10T10:06:18;98384.13;;;27.12;nan
74798;BME280;63326;45.088;7.658;2023-06-10T10:08:50;98393.09;;;27.93;nan
74798;BME280;63326;45.088;7.658;2023-06-10T10:11:18;98398.00;;;27.96;nan
74798;BME280;63326;45.088;7.658;2023-06-10T10:13:45;98383.03;;;27.69;nan
74798;BME280;63326;45.088;7.658;2023-06-10T10:16:20;98391.13;;;27.79;nan
74798;BME280;63326;45.088;7.658;2023-06-10T10:19:00;98393.59;;;26.29;nan
74798;BME280;63326;45.088;7.658;2023-06-10T10:21:32;98393.63;;;27.76;nan
74798;BME280;63326;45.088;7.658;2023-06-10T10:24:05;98390.06;;;28.08;nan
74798;BME280;63326;45.088;7.658;2023-06-10T10:26:35;98391.19;;;27.74;nan
74798;BME280;63326;45.088;7.658;2023-06-10T10:29:30;98390.28;;;27.79;nan
74798;BME280;63326;45.088;7.658;2023-06-10T10:31:59;98396.38;;;26.00;nan
74798;BME280;63326;45.088;7.658;2023-06-10T10:36:59;98389.22;;;25.25;nan
74798;BME280;63326;45.088;7.658;2023-06-10T10:39:26;98376.22;;;26.38;nan
74798;BME280;63326;45.088;7.658;2023-06-10T10:41:55;98368.38;;;25.98;nan
74798;BME280;63326;45.088;7.658;2023-06-10T10:44:23;98365.66;;;24.65;nan
74798;BME280;63326;45.088;7.658;2023-06-10T10:46:51;98379.47;;;25.43;nan
74798;BME280;63326;45.088;7.658;2023-06-10T10:49:18;98351.19;;;25.82;nan
74798;BME280;63326;45.088;7.658;2023-06-10T10:51:58;98359.66;;;25.17;nan
74798;BME280;63326;45.088;7.658;2023-06-10T10:54:34;98373.09;;;25.53;nan
74798;BME280;63326;45.088;7.658;2023-06-10T10:59:57;98379.34;;;26.27;nan
74798;BME280;63326;45.088;7.658;2023-06-10T11:05:05;98384.19;;;26.40;nan
74798;BME280;63326;45.088;7.658;2023-06-10T11:07:33;98367.69;;;26.83;nan
74798;BME280;63326;45.088;7.658;2023-06-10T11:10:11;98385.09;;;27.21;nan
74798;BME280;63326;45.088;7.658;2023-06-10T11:15:12;98380.50;;;27.87;nan
74798;BME280;63326;45.088;7.658;2023-06-10T11:18:08;98376.41;;;28.17;nan
74798;BME280;63326;45.088;7.658;2023-06-10T11:26:20;98383.19;;;27.92;nan
74798;BME280;63326;45.088;7.658;2023-06-10T11:31:25;98395.06;;;27.36;nan
74798;BME280;63326;45.088;7.658;2023-06-10T11:33:58;98367.63;;;26.69;nan
74798;BME280;63326;45.088;7.658;2023-06-10T11:36:26;98365.41;;;26.90;nan
74798;BME280;63326;45.088;7.658;2023-06-10T11:42:55;98377.13;;;25.66;59.09
74798;BME280;63326;45.088;7.658;2023-06-10T11:45:21;98374.56;;;25.79;58.30
74798;BME280;63326;45.088;7.658;2023-06-10T11:47:58;98372.78;;;25.60;59.35
74798;BME280;63326;45.088;7.658;2023-06-10T11:50:30;98362.84;;;26.27;57.62
74798;BME280;63326;45.088;7.658;2023-06-10T11:52:57;98364.13;;;26.10;58.02
74798;BME280;63326;45.088;7.658;2023-06-10T11:55:26;98354.28;;;26.04;58.25
74798;BME280;63326;45.088;7.658;2023-06-10T11:58:04;98375.00;;;25.92;58.06
74798;BME280;63326;45.088;7.658;2023-06-10T12:00:30;98375.81;;;25.92;58.04
74798;BME280;63326;45.088;7.658;2023-06-10T12:02:57;98368.06;;;25.70;59.19
74798;BME280;63326;45.088;7.658;2023-06-10T12:05:24;98368.09;;;25.26;60.57
74798;BME280;63326;45.088;7.658;2023-06-10T12:08:08;98363.66;;;25.35;59.55
74798;BME280;63326;45.088;7.658;2023-06-10T12:10:42;98360.47;;;25.57;59.71
74798;BME280;63326;45.088;7.658;2023-06-10T12:13:09;98339.31;;;25.58;59.93
74798;BME280;63326;45.088;7.658;2023-06-10T12:15:36;98356.25;;;25.70;59.51
74798;BME280;63326;45.088;7.658;2023-06-10T12:18:03;98346.34;;;25.69;58.65
74798;BME280;63326;45.088;7.658;2023-06-10T12:20:31;98349.13;;;25.64;61.65
74798;BME280;63326;45.088;7.658;2023-06-10T12:23:09;98354.47;;;25.84;60.93
74798;BME280;63326;45.088;7.658;2023-06-10T12:25:36;98335.59;;;25.77;60.09
74798;BME280;63326;45.088;7.658;2023-06-10T12:28:09;98351.88;;;25.98;61.17
74798;BME280;63326;45.088;7.658;2023-06-10T12:30:37;98349.53;;;25.86;63.52
74798;BME280;63326;45.088;7.658;2023-06-10T12:33:04;98356.13;;;25.85;63.86
74798;BME280;63326;45.088;7.658;2023-06-10T12:35:50;98347.84;;;25.90;66.25
74798;BME280;63326;45.088;7.658;2023-06-10T12:38:22;98345.69;;;25.87;69.04
74798;BME280;63326;45.088;7.658;2023-06-10T12:40:51;98347.44;;;25.73;67.76
74798;BME280;63326;45.088;7.658;2023-06-10T12:43:25;98334.16;;;25.85;69.14
74798;BME280;63326;45.088;7.658;2023-06-10T12:45:52;98340.19;;;25.87;70.56
74798;BME280;63326;45.088;7.658;2023-06-10T12:48:23;98334.16;;;25.85;67.12
74798;BME280;63326;45.088;7.658;2023-06-10T12:50:56;98337.22;;;26.07;67.34
74798;BME280;63326;45.088;7.658;2023-06-10T12:53:24;98333.66;;;26.07;68.29
74798;BME280;63326;45.088;7.658;2023-06-10T12:55:53;98322.31;;;26.13;69.07
74798;BME280;63326;45.088;7.658;2023-06-10T12:58:20;98329.81;;;26.08;69.86
74798;BME280;63326;45.088;7.658;2023-06-10T13:00:48;98322.28;;;26.19;68.78
74798;BME280;63326;45.088;7.658;2023-06-10T13:03:16;98323.31;;;26.23;68.52
74798;BME280;63326;45.088;7.658;2023-06-10T13:05:43;98318.19;;;26.40;68.56
74798;BME280;63326;45.088;7.658;2023-06-10T13:08:10;98299.91;;;26.25;66.51
74798;BME280;63326;45.088;7.658;2023-06-10T13:10:37;98322.16;;;26.53;63.34
74798;BME280;63326;45.088;7.658;2023-06-10T13:13:04;98319.94;;;26.31;64.56
74798;BME280;63326;45.088;7.658;2023-06-10T13:15:34;98319.06;;;26.59;65.62
74798;BME280;63326;45.088;7.658;2023-06-10T13:18:09;98320.88;;;26.69;64.58
74798;BME280;63326;45.088;7.658;2023-06-10T13:20:36;98301.19;;;26.81;63.55
74798;BME280;63326;45.088;7.658;2023-06-10T13:23:03;98311.06;;;27.01;62.77
74798;BME280;63326;45.088;7.658;2023-06-10T13:25:30;98306.72;;;27.18;63.78
74798;BME280;63326;45.088;7.658;2023-06-10T13:27:56;98284.75;;;27.13;61.11
74798;BME280;63326;45.088;7.658;2023-06-10T13:30:23;98302.44;;;27.26;59.05
74798;BME280;63326;45.088;7.658;2023-06-10T13:32:50;98295.59;;;27.23;57.06
74798;BME280;63326;45.088;7.658;2023-06-10T13:35:17;98291.97;;;27.61;55.35
74798;BME280;63326;45.088;7.658;2023-06-10T13:37:44;98298.78;;;28.09;57.16
74798;BME280;63326;45.088;7.658;2023-06-10T13:40:12;98269.44;;;28.32;55.78
74798;BME280;63326;45.088;7.658;2023-06-10T13:42:39;98288.84;;;29.05;55.61
74798;BME280;63326;45.088;7.658;2023-06-10T13:45:06;98277.75;;;28.82;51.45
74798;BME280;63326;45.088;7.658;2023-06-10T13:47:35;98274.47;;;29.39;51.58
74798;BME280;63326;45.088;7.658;2023-06-10T13:50:06;98275.53;;;29.29;49.59
74798;BME280;63326;45.088;7.658;2023-06-10T13:52:34;98283.56;;;29.39;49.22
74798;BME280;63326;45.088;7.658;2023-06-10T13:55:01;98282.34;;;29.68;50.10
74798;BME280;63326;45.088;7.658;2023-06-10T13:57:31;98268.78;;;29.13;49.42